JST527 YSSY-YMML
Flight info
| Callsign | JST527 |
|---|---|
| Flight time | 1h 9m |
| Altitude | 40000 |
| Route | MARUB7/34R WOL H65 LEECE Q29 ML |
| Aircraft | B788/H-SDE1E2E3FGHIJ2J3J4J5M1RWXY/LB1D1 |
Departure
| Time | 2026-05-04 07:39 |
|---|---|
| Airport | Sydney Kingsford Smith International Airport (YSSY) |
Arrival
| Time | 2026-05-04 08:48 |
|---|---|
| Airport | Melbourne Airport (YMML) |
| Time | Latitude | Longitude | Altitude | Speed | Heading |
|---|---|---|---|---|---|
| 2026-05-04 06:55 | -33.93520 | 151.17898 | 36 ft | 0 kts | 101° |
| 2026-05-04 07:18 | -33.93518 | 151.17887 | 36 ft | 4 kts | 100° |
| 2026-05-04 07:19 | -33.93513 | 151.17860 | 34 ft | 4 kts | 120° |
| 2026-05-04 07:19 | -33.93497 | 151.17845 | 34 ft | 0 kts | 181° |
| 2026-05-04 07:23 | -33.93498 | 151.17845 | 36 ft | 0 kts | 181° |
| 2026-05-04 07:24 | -33.93520 | 151.17839 | 36 ft | 5 kts | 191° |
| 2026-05-04 07:24 | -33.93564 | 151.17829 | 36 ft | 8 kts | 191° |
| 2026-05-04 07:24 | -33.93627 | 151.17815 | 36 ft | 10 kts | 191° |
| 2026-05-04 07:24 | -33.93706 | 151.17792 | 35 ft | 12 kts | 194° |
| 2026-05-04 07:25 | -33.93782 | 151.17769 | 36 ft | 12 kts | 194° |
| 2026-05-04 07:26 | -33.94503 | 151.17882 | 36 ft | 10 kts | 186° |
| 2026-05-04 07:27 | -33.94581 | 151.17898 | 36 ft | 13 kts | 168° |
| 2026-05-04 07:27 | -33.94678 | 151.17923 | 36 ft | 16 kts | 167° |
| 2026-05-04 07:27 | -33.94790 | 151.17952 | 36 ft | 18 kts | 168° |
| 2026-05-04 07:27 | -33.94918 | 151.17984 | 36 ft | 20 kts | 168° |
| 2026-05-04 07:28 | -33.95043 | 151.18018 | 36 ft | 14 kts | 167° |
| 2026-05-04 07:28 | -33.95099 | 151.18059 | 36 ft | 8 kts | 110° |
| 2026-05-04 07:28 | -33.95095 | 151.18125 | 36 ft | 9 kts | 78° |
| 2026-05-04 07:28 | -33.95081 | 151.18205 | 36 ft | 10 kts | 78° |
| 2026-05-04 07:29 | -33.95071 | 151.18264 | 36 ft | 7 kts | 78° |
| 2026-05-04 07:29 | -33.95058 | 151.18336 | 36 ft | 10 kts | 78° |
| 2026-05-04 07:29 | -33.95045 | 151.18407 | 36 ft | 9 kts | 77° |
| 2026-05-04 07:29 | -33.95050 | 151.18482 | 36 ft | 9 kts | 118° |
| 2026-05-04 07:30 | -33.95102 | 151.18529 | 36 ft | 10 kts | 142° |
| 2026-05-04 07:30 | -33.95167 | 151.18599 | 36 ft | 14 kts | 137° |
| 2026-05-04 07:30 | -33.95248 | 151.18681 | 36 ft | 16 kts | 148° |
| 2026-05-04 07:30 | -33.95363 | 151.18731 | 36 ft | 19 kts | 167° |
| 2026-05-04 07:31 | -33.95499 | 151.18767 | 35 ft | 21 kts | 168° |
| 2026-05-04 07:31 | -33.95649 | 151.18806 | 36 ft | 23 kts | 168° |
| 2026-05-04 07:33 | -33.96823 | 151.19066 | 36 ft | 18 kts | 172° |
| 2026-05-04 07:33 | -33.96949 | 151.19098 | 36 ft | 20 kts | 167° |
| 2026-05-04 07:33 | -33.97070 | 151.19131 | 36 ft | 11 kts | 167° |
| 2026-05-04 07:33 | -33.97109 | 151.19152 | 36 ft | 7 kts | 144° |
| 2026-05-04 07:34 | -33.97124 | 151.19178 | 36 ft | 3 kts | 113° |
| 2026-05-04 07:34 | -33.97125 | 151.19197 | 36 ft | 2 kts | 91° |
| 2026-05-04 07:34 | -33.97124 | 151.19203 | 36 ft | 0 kts | 85° |
| 2026-05-04 07:35 | -33.97124 | 151.19204 | 36 ft | 1 kts | 84° |
| 2026-05-04 07:35 | -33.97121 | 151.19227 | 34 ft | 5 kts | 79° |
| 2026-05-04 07:35 | -33.97116 | 151.19252 | 35 ft | 0 kts | 76° |
| 2026-05-04 07:38 | -33.97063 | 151.19370 | 31 ft | 4 kts | 360° |
| 2026-05-04 07:38 | -33.97037 | 151.19364 | 31 ft | 3 kts | 348° |
| 2026-05-04 07:38 | -33.96975 | 151.19348 | 30 ft | 29 kts | 348° |
| 2026-05-04 07:38 | -33.96443 | 151.19212 | 31 ft | 126 kts | 348° |
| 2026-05-04 07:39 | -33.95385 | 151.18911 | 656 ft | 163 kts | 342° |
| 2026-05-04 07:39 | -33.94310 | 151.18757 | 1889 ft | 160 kts | 9° |
| 2026-05-04 07:39 | -33.93310 | 151.19515 | 2598 ft | 180 kts | 39° |
| 2026-05-04 07:39 | -33.92702 | 151.20868 | 3540 ft | 194 kts | 68° |
| 2026-05-04 07:40 | -33.92802 | 151.22530 | 4353 ft | 215 kts | 107° |
| 2026-05-04 07:40 | -33.93530 | 151.24159 | 5089 ft | 224 kts | 118° |
| 2026-05-04 07:40 | -33.94113 | 151.25847 | 5990 ft | 221 kts | 93° |
| 2026-05-04 07:40 | -33.94049 | 151.27779 | 6433 ft | 245 kts | 81° |
| 2026-05-04 07:41 | -33.93928 | 151.29955 | 6883 ft | 275 kts | 82° |
| 2026-05-04 07:41 | -33.93829 | 151.32370 | 7445 ft | 298 kts | 83° |
| 2026-05-04 07:41 | -33.93735 | 151.34911 | 7998 ft | 311 kts | 83° |
| 2026-05-04 07:41 | -33.93623 | 151.37558 | 8016 ft | 325 kts | 83° |
| 2026-05-04 07:42 | -33.93508 | 151.40241 | 8370 ft | 314 kts | 83° |
| 2026-05-04 07:42 | -33.93405 | 151.42772 | 9831 ft | 300 kts | 83° |
| 2026-05-04 07:42 | -33.93291 | 151.45306 | 10418 ft | 319 kts | 83° |
| 2026-05-04 07:42 | -33.93161 | 151.48083 | 10718 ft | 346 kts | 83° |
| 2026-05-04 07:43 | -33.93318 | 151.51078 | 11122 ft | 370 kts | 104° |
| 2026-05-04 07:43 | -33.94516 | 151.53824 | 12047 ft | 376 kts | 128° |
| 2026-05-04 07:43 | -33.96522 | 151.55853 | 12821 ft | 381 kts | 153° |
| 2026-05-04 07:43 | -33.99033 | 151.56827 | 13628 ft | 382 kts | 176° |
| 2026-05-04 07:44 | -34.01658 | 151.56611 | 14314 ft | 378 kts | 199° |
| 2026-05-04 07:44 | -34.03991 | 151.55252 | 15027 ft | 370 kts | 222° |
| 2026-05-04 07:44 | -34.05690 | 151.53001 | 15728 ft | 361 kts | 244° |
| 2026-05-04 07:44 | -34.06563 | 151.50212 | 16412 ft | 355 kts | 262° |
| 2026-05-04 07:45 | -34.06910 | 151.47309 | 17074 ft | 355 kts | 269° |
| 2026-05-04 07:45 | -34.07117 | 151.44334 | 17740 ft | 358 kts | 269° |
| 2026-05-04 07:45 | -34.07421 | 151.41332 | 18383 ft | 363 kts | 265° |
| 2026-05-04 07:45 | -34.07944 | 151.38329 | 18974 ft | 368 kts | 260° |
| 2026-05-04 07:46 | -34.08714 | 151.35370 | 19600 ft | 372 kts | 255° |
| 2026-05-04 07:46 | -34.09729 | 151.32481 | 20184 ft | 377 kts | 250° |
| 2026-05-04 07:46 | -34.10991 | 151.29683 | 20741 ft | 382 kts | 244° |
| 2026-05-04 07:46 | -34.12464 | 151.26995 | 21275 ft | 386 kts | 240° |
| 2026-05-04 07:47 | -34.14233 | 151.24561 | 21801 ft | 397 kts | 230° |
| 2026-05-04 07:47 | -34.16257 | 151.22276 | 22252 ft | 400 kts | 230° |
| 2026-05-04 07:47 | -34.18341 | 151.19969 | 22776 ft | 402 kts | 229° |
| 2026-05-04 07:49 | -34.33156 | 151.03894 | 25320 ft | 418 kts | 229° |
| 2026-05-04 07:49 | -34.35321 | 151.01527 | 25610 ft | 421 kts | 229° |
| 2026-05-04 07:49 | -34.37500 | 150.99149 | 25938 ft | 423 kts | 229° |
| 2026-05-04 07:50 | -34.39693 | 150.96753 | 26255 ft | 425 kts | 229° |
| 2026-05-04 07:50 | -34.41861 | 150.94382 | 26556 ft | 428 kts | 229° |
| 2026-05-04 07:50 | -34.44077 | 150.91957 | 26873 ft | 430 kts | 229° |
| 2026-05-04 07:50 | -34.46300 | 150.89520 | 27176 ft | 432 kts | 229° |
| 2026-05-04 07:51 | -34.48533 | 150.87072 | 27495 ft | 435 kts | 229° |
| 2026-05-04 07:51 | -34.50784 | 150.84604 | 27805 ft | 437 kts | 229° |
| 2026-05-04 07:51 | -34.53046 | 150.82120 | 28122 ft | 440 kts | 229° |
| 2026-05-04 07:51 | -34.55291 | 150.79598 | 28426 ft | 438 kts | 233° |
| 2026-05-04 07:52 | -34.57203 | 150.76762 | 28725 ft | 433 kts | 240° |
| 2026-05-04 07:52 | -34.58995 | 150.73809 | 29014 ft | 436 kts | 241° |
| 2026-05-04 07:52 | -34.60794 | 150.70826 | 29293 ft | 439 kts | 241° |
| 2026-05-04 07:52 | -34.62597 | 150.67826 | 29619 ft | 441 kts | 241° |
| 2026-05-04 07:53 | -34.64390 | 150.64848 | 29925 ft | 444 kts | 241° |
| 2026-05-04 07:54 | -34.77220 | 150.43479 | 32467 ft | 449 kts | 242° |
| 2026-05-04 07:55 | -34.79058 | 150.40406 | 32764 ft | 449 kts | 242° |
| 2026-05-04 07:55 | -34.80898 | 150.37324 | 33054 ft | 451 kts | 242° |
| 2026-05-04 07:55 | -34.82742 | 150.34237 | 33316 ft | 453 kts | 242° |
| 2026-05-04 07:55 | -34.84596 | 150.31130 | 33598 ft | 453 kts | 242° |
| 2026-05-04 07:56 | -34.86423 | 150.28066 | 33912 ft | 453 kts | 242° |
| 2026-05-04 07:56 | -34.88277 | 150.24955 | 34142 ft | 455 kts | 242° |
| 2026-05-04 07:56 | -34.91998 | 150.18696 | 34574 ft | 454 kts | 242° |
| 2026-05-04 07:57 | -34.93849 | 150.15584 | 34900 ft | 453 kts | 242° |
| 2026-05-04 07:57 | -34.95695 | 150.12472 | 35162 ft | 453 kts | 243° |
| 2026-05-04 07:57 | -34.97536 | 150.09363 | 35467 ft | 452 kts | 242° |
| 2026-05-04 07:57 | -34.99355 | 150.06294 | 35709 ft | 452 kts | 242° |
| 2026-05-04 07:58 | -35.01198 | 150.03182 | 35985 ft | 452 kts | 242° |
| 2026-05-04 07:58 | -35.03034 | 150.00078 | 36266 ft | 451 kts | 242° |
| 2026-05-04 07:58 | -35.04866 | 149.96978 | 36612 ft | 449 kts | 242° |
| 2026-05-04 07:58 | -35.06690 | 149.93888 | 36935 ft | 448 kts | 243° |
| 2026-05-04 07:59 | -35.08509 | 149.90801 | 37246 ft | 447 kts | 243° |
| 2026-05-04 07:59 | -35.10322 | 149.87725 | 37561 ft | 446 kts | 243° |
| 2026-05-04 07:59 | -35.12134 | 149.84647 | 37842 ft | 447 kts | 243° |
| 2026-05-04 07:59 | -35.13924 | 149.81602 | 38072 ft | 447 kts | 243° |
| 2026-05-04 08:00 | -35.15738 | 149.78517 | 38358 ft | 447 kts | 243° |
| 2026-05-04 08:00 | -35.17549 | 149.75434 | 38668 ft | 446 kts | 243° |
| 2026-05-04 08:00 | -35.19353 | 149.72361 | 38913 ft | 445 kts | 242° |
| 2026-05-04 08:02 | -35.31973 | 149.50770 | 40044 ft | 452 kts | 242° |
| 2026-05-04 08:02 | -35.35616 | 149.44521 | 40043 ft | 448 kts | 242° |
| 2026-05-04 08:03 | -35.39216 | 149.38324 | 40040 ft | 446 kts | 242° |
| 2026-05-04 08:03 | -35.42814 | 149.32124 | 40056 ft | 447 kts | 242° |
| 2026-05-04 08:04 | -35.46422 | 149.25893 | 40058 ft | 449 kts | 242° |
| 2026-05-04 08:04 | -35.50008 | 149.19694 | 40059 ft | 449 kts | 242° |
| 2026-05-04 08:05 | -35.53615 | 149.13441 | 40057 ft | 449 kts | 242° |
| 2026-05-04 08:05 | -35.57221 | 149.07185 | 40047 ft | 449 kts | 242° |
| 2026-05-04 08:06 | -35.60822 | 149.00922 | 40048 ft | 448 kts | 242° |
| 2026-05-04 08:06 | -35.64450 | 148.94598 | 40048 ft | 457 kts | 242° |
| 2026-05-04 08:08 | -35.79160 | 148.68861 | 40072 ft | 462 kts | 242° |
| 2026-05-04 08:11 | -35.95710 | 148.39612 | 40066 ft | 465 kts | 242° |
| 2026-05-04 08:11 | -36.01236 | 148.29770 | 40075 ft | 466 kts | 242° |
| 2026-05-04 08:12 | -36.04923 | 148.23193 | 40059 ft | 464 kts | 242° |
| 2026-05-04 08:12 | -36.08575 | 148.16657 | 40072 ft | 467 kts | 242° |
| 2026-05-04 08:13 | -36.12272 | 148.10034 | 40073 ft | 469 kts | 242° |
| 2026-05-04 08:13 | -36.16001 | 148.03370 | 40069 ft | 473 kts | 242° |
| 2026-05-04 08:14 | -36.19748 | 147.96660 | 40069 ft | 474 kts | 242° |
| 2026-05-04 08:16 | -36.34615 | 147.69900 | 40060 ft | 473 kts | 242° |
| 2026-05-04 08:16 | -36.38330 | 147.63155 | 40048 ft | 474 kts | 242° |
| 2026-05-04 08:17 | -36.42025 | 147.56448 | 40052 ft | 474 kts | 242° |
| 2026-05-04 08:17 | -36.45747 | 147.49671 | 40048 ft | 475 kts | 242° |
| 2026-05-04 08:19 | -36.60578 | 147.22544 | 40038 ft | 475 kts | 242° |
| 2026-05-04 08:20 | -36.64282 | 147.15731 | 40032 ft | 475 kts | 242° |
| 2026-05-04 08:20 | -36.67986 | 147.08909 | 40031 ft | 476 kts | 242° |
| 2026-05-04 08:21 | -36.71683 | 147.02088 | 40034 ft | 474 kts | 242° |
| 2026-05-04 08:21 | -36.75363 | 146.95277 | 40024 ft | 473 kts | 242° |
| 2026-05-04 08:22 | -36.79009 | 146.88521 | 40035 ft | 473 kts | 242° |
| 2026-05-04 08:24 | -36.93021 | 146.62215 | 40035 ft | 476 kts | 243° |
| 2026-05-04 08:24 | -36.94828 | 146.58848 | 39793 ft | 452 kts | 242° |
| 2026-05-04 08:24 | -36.96581 | 146.55637 | 38349 ft | 447 kts | 243° |
| 2026-05-04 08:25 | -36.98316 | 146.52404 | 36671 ft | 448 kts | 244° |
| 2026-05-04 08:25 | -37.00010 | 146.49235 | 35645 ft | 431 kts | 244° |
| 2026-05-04 08:25 | -37.02194 | 146.45171 | 34079 ft | 419 kts | 245° |
| 2026-05-04 08:25 | -37.03284 | 146.43138 | 33367 ft | 410 kts | 245° |
| 2026-05-04 08:26 | -37.04830 | 146.40248 | 33015 ft | 399 kts | 246° |
| 2026-05-04 08:27 | -37.15992 | 146.20135 | 28401 ft | 404 kts | 227° |
| 2026-05-04 08:28 | -37.18480 | 146.18442 | 27988 ft | 418 kts | 207° |
| 2026-05-04 08:28 | -37.21352 | 146.17602 | 28003 ft | 432 kts | 197° |
| 2026-05-04 08:28 | -37.24373 | 146.17086 | 27994 ft | 443 kts | 194° |
| 2026-05-04 08:28 | -37.27454 | 146.16681 | 27987 ft | 446 kts | 193° |
| 2026-05-04 08:29 | -37.30538 | 146.16322 | 27995 ft | 446 kts | 192° |
| 2026-05-04 08:29 | -37.33634 | 146.15978 | 27975 ft | 447 kts | 192° |
| 2026-05-04 08:29 | -37.36685 | 146.15644 | 27985 ft | 446 kts | 192° |
| 2026-05-04 08:31 | -37.51583 | 146.02876 | 25043 ft | 354 kts | 260° |
| 2026-05-04 08:33 | -37.49954 | 145.83637 | 19261 ft | 304 kts | 288° |
| 2026-05-04 08:33 | -37.49655 | 145.81052 | 18390 ft | 299 kts | 273° |
| 2026-05-04 08:35 | -37.55340 | 145.62642 | 14653 ft | 317 kts | 250° |
| 2026-05-04 08:35 | -37.56232 | 145.60090 | 14196 ft | 319 kts | 250° |
| 2026-05-04 08:35 | -37.57121 | 145.57539 | 13734 ft | 318 kts | 250° |
| 2026-05-04 08:35 | -37.58003 | 145.55020 | 13269 ft | 311 kts | 250° |
| 2026-05-04 08:37 | -37.62901 | 145.40947 | 10804 ft | 258 kts | 252° |
| 2026-05-04 08:37 | -37.63640 | 145.38793 | 10731 ft | 271 kts | 252° |
| 2026-05-04 08:37 | -37.64381 | 145.36663 | 10620 ft | 264 kts | 251° |
| 2026-05-04 08:38 | -37.65125 | 145.34518 | 10418 ft | 270 kts | 251° |
| 2026-05-04 08:38 | -37.65870 | 145.32377 | 10134 ft | 263 kts | 252° |
| 2026-05-04 08:38 | -37.66604 | 145.30248 | 9884 ft | 267 kts | 252° |
| 2026-05-04 08:40 | -37.72700 | 145.16028 | 7735 ft | 274 kts | 240° |
| 2026-05-04 08:40 | -37.73826 | 145.14070 | 7373 ft | 276 kts | 240° |
| 2026-05-04 08:40 | -37.74954 | 145.12117 | 7005 ft | 275 kts | 240° |
| 2026-05-04 08:41 | -37.76072 | 145.10172 | 6632 ft | 269 kts | 240° |
| 2026-05-04 08:41 | -37.77151 | 145.08293 | 6318 ft | 263 kts | 241° |
| 2026-05-04 08:41 | -37.78219 | 145.06423 | 5982 ft | 261 kts | 241° |
| 2026-05-04 08:41 | -37.79277 | 145.04571 | 5637 ft | 259 kts | 241° |
| 2026-05-04 08:42 | -37.80333 | 145.02729 | 5307 ft | 256 kts | 241° |
| 2026-05-04 08:42 | -37.81247 | 145.00974 | 4974 ft | 221 kts | 253° |
| 2026-05-04 08:42 | -37.81657 | 144.99229 | 4753 ft | 202 kts | 263° |
| 2026-05-04 08:42 | -37.81960 | 144.97504 | 4522 ft | 200 kts | 263° |
| 2026-05-04 08:43 | -37.82257 | 144.95800 | 4282 ft | 196 kts | 263° |
| 2026-05-04 08:43 | -37.82535 | 144.94206 | 4068 ft | 176 kts | 265° |
| 2026-05-04 08:43 | -37.82710 | 144.92693 | 3870 ft | 172 kts | 267° |
| 2026-05-04 08:43 | -37.82898 | 144.91216 | 3644 ft | 168 kts | 267° |
| 2026-05-04 08:44 | -37.83045 | 144.89761 | 3430 ft | 165 kts | 275° |
| 2026-05-04 08:44 | -37.82802 | 144.88410 | 3213 ft | 151 kts | 294° |
| 2026-05-04 08:46 | -37.76455 | 144.85577 | 1877 ft | 127 kts | 345° |
| 2026-05-04 08:46 | -37.75609 | 144.85417 | 1711 ft | 115 kts | 346° |
| 2026-05-04 08:46 | -37.74818 | 144.85268 | 1567 ft | 118 kts | 345° |
| 2026-05-04 08:46 | -37.73994 | 144.85104 | 1384 ft | 121 kts | 346° |
| 2026-05-04 08:47 | -37.73178 | 144.84942 | 1280 ft | 117 kts | 348° |
| 2026-05-04 08:47 | -37.72365 | 144.84791 | 1102 ft | 119 kts | 352° |
| 2026-05-04 08:47 | -37.71551 | 144.84653 | 969 ft | 120 kts | 352° |
| 2026-05-04 08:47 | -37.70682 | 144.84493 | 787 ft | 131 kts | 354° |
| 2026-05-04 08:48 | -37.69810 | 144.84335 | 650 ft | 124 kts | 353° |
| 2026-05-04 08:48 | -37.69005 | 144.84183 | 478 ft | 118 kts | 352° |
| 2026-05-04 08:48 | -37.68160 | 144.84020 | 365 ft | 116 kts | 353° |
| 2026-05-04 08:48 | -37.67613 | 144.83918 | 371 ft | 45 kts | 351° |
| 2026-05-04 08:49 | -37.67335 | 144.83866 | 379 ft | 35 kts | 352° |
| 2026-05-04 08:50 | -37.66811 | 144.83928 | 394 ft | 1 kts | 21° |
| 2026-05-04 08:50 | -37.66803 | 144.83931 | 397 ft | 1 kts | 20° |
| 2026-05-04 08:51 | -37.66787 | 144.83939 | 395 ft | 3 kts | 20° |
| 2026-05-04 08:51 | -37.66759 | 144.83958 | 398 ft | 7 kts | 35° |
| 2026-05-04 08:51 | -37.66725 | 144.84023 | 398 ft | 10 kts | 70° |
| 2026-05-04 08:51 | -37.66724 | 144.84110 | 397 ft | 11 kts | 103° |
| 2026-05-04 08:52 | -37.66770 | 144.84179 | 399 ft | 11 kts | 151° |
| 2026-05-04 08:52 | -37.66852 | 144.84204 | 395 ft | 12 kts | 172° |
| 2026-05-04 08:52 | -37.66945 | 144.84220 | 393 ft | 15 kts | 171° |
| 2026-05-04 08:52 | -37.67060 | 144.84242 | 390 ft | 19 kts | 171° |
| 2026-05-04 08:53 | -37.67203 | 144.84270 | 388 ft | 23 kts | 172° |
| 2026-05-04 08:54 | -37.67477 | 144.84516 | 384 ft | 7 kts | 124° |
| 2026-05-04 08:55 | -37.67529 | 144.84547 | 383 ft | 11 kts | 166° |
| 2026-05-04 08:55 | -37.67627 | 144.84566 | 380 ft | 15 kts | 171° |
| 2026-05-04 08:55 | -37.67746 | 144.84587 | 375 ft | 20 kts | 172° |
| 2026-05-04 08:55 | -37.67906 | 144.84618 | 370 ft | 26 kts | 171° |